createdAt,value
2018-02-11T00:00:29.151Z,36.92
2018-02-11T00:01:35.335Z,36.28
2018-02-11T00:02:41.520Z,40.40
2018-02-11T00:03:47.677Z,40.58
2018-02-11T00:04:53.805Z,40.38
2018-02-11T00:06:00.092Z,37.05
2018-02-11T00:07:06.334Z,39.05
2018-02-11T00:08:12.510Z,36.72
2018-02-11T00:09:19.624Z,40.05
2018-02-11T00:10:25.769Z,39.25
2018-02-11T00:11:31.687Z,39.30
2018-02-11T00:12:38.338Z,38.80
2018-02-11T00:13:44.529Z,41.70
2018-02-11T00:14:50.934Z,32.38
2018-02-11T00:15:57.148Z,37.00
2018-02-11T00:17:03.302Z,35.60
2018-02-11T00:18:09.425Z,34.53
2018-02-11T00:19:16.021Z,34.08
2018-02-11T00:20:22.389Z,36.65
2018-02-11T00:21:28.708Z,34.65
2018-02-11T00:22:36.160Z,36.67
2018-02-11T00:23:42.343Z,36.22
2018-02-11T00:24:48.496Z,38.17
2018-02-11T00:25:54.690Z,35.10
2018-02-11T00:27:01.009Z,34.22
2018-02-11T00:28:06.912Z,34.78
2018-02-11T00:29:13.095Z,40.85
2018-02-11T00:30:19.280Z,34.17
2018-02-11T00:31:25.482Z,32.95
2018-02-11T00:32:31.703Z,37.83
2018-02-11T00:33:37.928Z,37.00
2018-02-11T00:34:44.129Z,35.13
2018-02-11T00:35:50.276Z,36.17
2018-02-11T00:36:57.174Z,35.50
2018-02-11T00:38:08.990Z,39.35
2018-02-11T00:39:15.172Z,36.97
2018-02-11T00:40:21.316Z,39.03
2018-02-11T00:41:27.187Z,36.25
2018-02-11T00:42:34.340Z,37.55
2018-02-11T00:43:40.480Z,33.53
2018-02-11T00:44:46.732Z,38.45
2018-02-11T00:45:52.876Z,35.90
2018-02-11T00:46:59.035Z,38.00
2018-02-11T00:48:05.164Z,35.92
2018-02-11T00:49:11.342Z,36.42
2018-02-11T00:50:17.494Z,38.92
2018-02-11T00:51:23.663Z,34.15
2018-02-11T00:52:30.567Z,36.70
2018-02-11T00:53:36.928Z,35.05
2018-02-11T00:54:43.102Z,36.85
2018-02-11T00:55:49.246Z,33.70
2018-02-11T00:56:55.427Z,37.40
2018-02-11T00:58:09.448Z,35.65
2018-02-11T00:59:15.580Z,36.22
2018-02-11T01:00:21.708Z,35.88
2018-02-11T01:01:32.818Z,35.80
2018-02-11T01:02:38.974Z,35.92
2018-02-11T01:03:45.177Z,33.28
2018-02-11T01:04:51.042Z,36.30
2018-02-11T01:05:57.180Z,34.20
2018-02-11T01:07:03.361Z,36.72
2018-02-11T01:08:09.252Z,34.60
2018-02-11T01:09:15.446Z,36.08
2018-02-11T01:10:22.335Z,33.80
2018-02-11T01:11:28.546Z,30.27
2018-02-11T01:12:40.711Z,34.35
2018-02-11T01:13:47.061Z,34.30
2018-02-11T01:14:53.257Z,37.40
2018-02-11T01:15:59.647Z,34.63
2018-02-11T01:17:05.820Z,34.80
2018-02-11T01:18:11.961Z,35.95
2018-02-11T01:19:18.153Z,32.05
2018-02-11T01:20:24.342Z,35.47
2018-02-11T01:21:30.528Z,34.00
2018-02-11T01:22:36.724Z,33.72
2018-02-11T01:23:42.887Z,30.40
2018-02-11T01:24:49.099Z,31.58
2018-02-11T01:25:56.012Z,31.12
2018-02-11T01:27:02.239Z,33.05
2018-02-11T01:28:08.474Z,30.85
2018-02-11T01:29:14.332Z,30.52
2018-02-11T01:30:20.509Z,32.38
2018-02-11T01:31:26.686Z,34.88
2018-02-11T01:32:32.876Z,31.65
2018-02-11T01:33:39.976Z,33.83
2018-02-11T01:34:46.466Z,33.22
2018-02-11T01:35:52.646Z,36.60
2018-02-11T01:36:58.835Z,35.83
2018-02-11T01:38:05.050Z,34.58
2018-02-11T01:39:11.292Z,33.75
2018-02-11T01:40:17.454Z,30.50
2018-02-11T01:41:23.273Z,31.95
2018-02-11T01:42:29.427Z,32.58
2018-02-11T01:43:35.549Z,33.05
2018-02-11T01:44:41.754Z,29.37
2018-02-11T01:45:47.896Z,29.80
2018-02-11T01:46:54.916Z,31.65
2018-02-11T01:48:01.152Z,32.20
2018-02-11T01:49:07.334Z,29.00
2018-02-11T01:50:15.660Z,29.70
2018-02-11T01:51:21.842Z,29.05
2018-02-11T01:52:27.996Z,29.77
2018-02-11T01:53:34.176Z,27.98
2018-02-11T01:54:40.343Z,29.20
2018-02-11T01:55:46.518Z,27.73
2018-02-11T01:56:52.682Z,27.70
2018-02-11T01:57:59.108Z,26.83
2018-02-11T01:59:05.256Z,29.67
2018-02-11T02:00:11.058Z,28.17
2018-02-11T02:01:17.262Z,28.42
2018-02-11T02:02:22.384Z,29.52
2018-02-11T02:03:28.618Z,28.05
2018-02-11T02:04:34.794Z,28.30
2018-02-11T02:05:40.921Z,27.87
2018-02-11T02:06:47.146Z,24.90
2018-02-11T02:07:53.364Z,25.67
2018-02-11T02:08:59.590Z,25.58
2018-02-11T02:10:05.825Z,26.50
2018-02-11T02:11:11.689Z,28.98
2018-02-11T02:12:18.058Z,32.05
2018-02-11T02:13:25.128Z,25.73
2018-02-11T02:14:31.359Z,28.95
2018-02-11T02:15:37.521Z,28.42
2018-02-11T02:16:43.729Z,27.27
2018-02-11T02:17:49.938Z,23.73
2018-02-11T02:18:56.089Z,29.70
2018-02-11T02:20:03.076Z,34.22
2018-02-11T02:21:09.224Z,33.95
2018-02-11T02:22:15.140Z,32.47
2018-02-11T02:23:21.579Z,32.28
2018-02-11T02:24:27.758Z,29.70
2018-02-11T02:25:33.979Z,30.67
2018-02-11T02:26:40.168Z,31.27
2018-02-11T02:27:46.292Z,30.50
2018-02-11T02:28:52.464Z,31.77
2018-02-11T02:29:58.604Z,33.13
2018-02-11T02:31:04.755Z,30.27
2018-02-11T02:32:10.976Z,26.58
2018-02-11T02:33:17.107Z,28.10
2018-02-11T02:34:23.282Z,33.17
2018-02-11T02:35:29.472Z,26.73
2018-02-11T02:36:35.616Z,30.60
2018-02-11T02:37:41.832Z,27.08
2018-02-11T02:38:48.031Z,26.52
2018-02-11T02:39:54.237Z,29.98
2018-02-11T02:41:00.412Z,28.33
2018-02-11T02:42:06.563Z,28.45
2018-02-11T02:43:12.759Z,30.85
2018-02-11T02:44:18.916Z,26.98
2018-02-11T02:45:24.785Z,29.17
2018-02-11T02:46:30.984Z,29.60
2018-02-11T02:47:37.124Z,28.67
2018-02-11T02:48:43.260Z,25.70
2018-02-11T02:49:49.439Z,30.40
2018-02-11T02:50:55.556Z,24.35
2018-02-11T02:52:01.712Z,29.80
2018-02-11T02:53:07.864Z,28.80
2018-02-11T02:54:14.033Z,25.25
2018-02-11T02:55:21.145Z,26.27
2018-02-11T02:56:27.284Z,25.73
2018-02-11T02:57:33.425Z,24.17
2018-02-11T02:58:39.617Z,29.45
2018-02-11T02:59:45.767Z,26.30
2018-02-11T03:00:51.944Z,28.10
2018-02-11T03:01:58.168Z,26.12
2018-02-11T03:03:04.331Z,28.67
2018-02-11T03:04:10.893Z,25.65
2018-02-11T03:05:17.133Z,24.75
2018-02-11T03:06:22.995Z,28.05
2018-02-11T03:07:29.168Z,27.02
2018-02-11T03:08:35.396Z,24.45
2018-02-11T03:09:41.524Z,27.58
2018-02-11T03:10:48.585Z,25.52
2018-02-11T03:11:54.766Z,29.00
2018-02-11T03:13:01.097Z,24.63
2018-02-11T03:14:12.502Z,27.08
2018-02-11T03:15:18.738Z,29.40
2018-02-11T03:16:25.120Z,26.35
2018-02-11T03:17:31.288Z,24.40
2018-02-11T03:18:37.482Z,27.62
2018-02-11T03:19:43.596Z,26.52
2018-02-11T03:20:49.909Z,23.80
2018-02-11T03:21:56.724Z,26.92
2018-02-11T03:23:02.849Z,25.35
2018-02-11T03:24:09.601Z,23.55
2018-02-11T03:25:17.681Z,26.12
2018-02-11T03:26:26.497Z,27.27
2018-02-11T03:27:33.918Z,23.23
2018-02-11T03:28:41.341Z,27.55
2018-02-11T03:29:49.915Z,28.70
2018-02-11T03:30:58.728Z,25.15
2018-02-11T03:32:05.884Z,25.40
2018-02-11T03:33:13.563Z,27.95
2018-02-11T03:34:20.646Z,25.37
2018-02-11T03:35:26.828Z,25.75
2018-02-11T03:36:32.996Z,30.73
2018-02-11T03:37:38.935Z,27.58
2018-02-11T03:38:45.787Z,23.62
2018-02-11T03:39:52.168Z,25.73
2018-02-11T03:40:58.521Z,23.23
2018-02-11T03:42:04.727Z,24.42
2018-02-11T03:43:10.976Z,21.33
2018-02-11T03:44:17.158Z,26.65
2018-02-11T03:45:23.612Z,23.73
2018-02-11T03:46:30.431Z,24.25
2018-02-11T03:47:36.561Z,27.15
2018-02-11T03:48:43.006Z,24.83
2018-02-11T03:49:49.186Z,21.92
2018-02-11T03:50:55.361Z,25.37
2018-02-11T03:52:02.966Z,26.10
2018-02-11T03:53:09.089Z,25.37
2018-02-11T03:54:15.265Z,27.87
2018-02-11T03:55:21.432Z,23.62
2018-02-11T03:56:27.636Z,27.60
2018-02-11T03:57:34.848Z,28.12
2018-02-11T03:58:40.995Z,28.62
2018-02-11T03:59:47.168Z,29.70
2018-02-11T04:00:53.300Z,30.67
2018-02-11T04:01:59.565Z,27.58
2018-02-11T04:03:05.568Z,28.73
2018-02-11T04:04:11.740Z,22.60
2018-02-11T04:05:18.823Z,28.05
2018-02-11T04:06:25.153Z,25.90
2018-02-11T04:07:31.326Z,26.52
2018-02-11T04:08:37.540Z,26.27
2018-02-11T04:09:49.736Z,26.15
2018-02-11T04:10:55.967Z,22.73
2018-02-11T04:12:02.260Z,26.75
2018-02-11T04:13:08.387Z,27.62
2018-02-11T04:14:14.514Z,26.45
2018-02-11T04:15:20.477Z,25.50
2018-02-11T04:16:27.536Z,26.87
2018-02-11T04:17:33.751Z,27.55
2018-02-11T04:18:39.566Z,25.80
2018-02-11T04:19:45.689Z,27.17
2018-02-11T04:20:51.810Z,27.35
2018-02-11T04:21:58.863Z,26.42
2018-02-11T04:23:05.147Z,30.37
2018-02-11T04:24:11.280Z,34.83
2018-02-11T04:25:17.389Z,33.17
2018-02-11T04:26:23.562Z,33.83
2018-02-11T04:27:29.828Z,36.95
2018-02-11T04:28:36.001Z,32.63
2018-02-11T04:29:42.120Z,38.97
2018-02-11T04:30:48.277Z,38.33
2018-02-11T04:31:54.583Z,32.40
2018-02-11T04:33:00.784Z,35.00
2018-02-11T04:34:06.933Z,31.30
2018-02-11T04:35:13.099Z,32.60
2018-02-11T04:36:19.277Z,30.65
2018-02-11T04:37:25.463Z,28.70
2018-02-11T04:38:31.363Z,26.70
2018-02-11T04:39:37.532Z,30.85
2018-02-11T04:40:43.723Z,29.77
2018-02-11T04:41:49.861Z,28.08
2018-02-11T04:42:56.064Z,28.75
2018-02-11T04:44:02.319Z,27.23
2018-02-11T04:45:08.530Z,23.50
2018-02-11T04:46:15.610Z,24.02
2018-02-11T04:47:21.737Z,24.05
2018-02-11T04:48:28.004Z,22.40
2018-02-11T04:49:34.315Z,25.35
2018-02-11T04:50:40.457Z,24.77
2018-02-11T04:51:46.599Z,23.62
2018-02-11T04:52:52.382Z,22.75
2018-02-11T04:53:58.588Z,26.77
2018-02-11T04:55:04.784Z,25.05
2018-02-11T04:56:10.693Z,25.40
2018-02-11T04:57:16.909Z,23.70
2018-02-11T04:58:23.126Z,21.08
2018-02-11T04:59:29.368Z,18.87
2018-02-11T05:00:35.496Z,23.30
2018-02-11T05:01:41.662Z,18.55
2018-02-11T05:02:47.803Z,24.58
2018-02-11T05:03:54.000Z,23.70
2018-02-11T05:05:00.920Z,24.87
2018-02-11T05:06:07.164Z,23.20
2018-02-11T05:07:13.280Z,22.20
2018-02-11T05:08:19.411Z,23.48
2018-02-11T05:09:25.642Z,21.05
2018-02-11T05:10:32.709Z,22.35
2018-02-11T05:11:38.870Z,21.58
2018-02-11T05:12:45.051Z,20.15
2018-02-11T05:13:51.361Z,23.38
2018-02-11T05:14:57.546Z,23.35
2018-02-11T05:16:03.746Z,21.35
2018-02-11T05:17:11.767Z,20.70
2018-02-11T05:18:17.897Z,21.85
2018-02-11T05:19:24.024Z,20.20
2018-02-11T05:20:30.397Z,22.58
2018-02-11T05:21:36.533Z,21.40
2018-02-11T05:22:42.704Z,21.42
2018-02-11T05:23:48.897Z,20.58
2018-02-11T05:24:55.225Z,17.10
2018-02-11T05:26:01.385Z,19.33
2018-02-11T05:27:07.527Z,19.35
2018-02-11T05:28:13.667Z,19.62
2018-02-11T05:29:19.801Z,20.42
2018-02-11T05:30:26.020Z,19.52
2018-02-11T05:31:32.240Z,18.87
2018-02-11T05:32:42.316Z,18.98
2018-02-11T05:33:48.466Z,15.95
2018-02-11T05:34:54.683Z,17.65
2018-02-11T05:36:01.200Z,19.15
2018-02-11T05:37:07.360Z,18.58
2018-02-11T05:38:13.507Z,20.10
2018-02-11T05:39:19.670Z,19.20
2018-02-11T05:40:26.804Z,17.87
2018-02-11T05:41:33.095Z,16.20
2018-02-11T05:42:39.243Z,18.80
2018-02-11T05:43:45.380Z,18.58
2018-02-11T05:44:52.461Z,16.67
2018-02-11T05:45:58.672Z,17.65
2018-02-11T05:47:04.905Z,18.37
2018-02-11T05:48:11.276Z,19.33
2018-02-11T05:49:17.413Z,18.05
2018-02-11T05:50:23.599Z,19.23
2018-02-11T05:51:29.810Z,20.37
2018-02-11T05:52:36.018Z,20.23
2018-02-11T05:53:42.147Z,19.35
2018-02-11T05:54:48.328Z,22.83
2018-02-11T05:55:54.464Z,18.98
2018-02-11T05:57:00.645Z,20.35
2018-02-11T05:58:06.830Z,18.87
2018-02-11T05:59:13.935Z,20.15
2018-02-11T06:00:20.115Z,19.25
2018-02-11T06:01:26.296Z,18.98
2018-02-11T06:02:32.529Z,18.50
2018-02-11T06:03:38.669Z,18.15
2018-02-11T06:04:44.808Z,22.05
2018-02-11T06:05:51.073Z,17.85
2018-02-11T06:06:57.458Z,19.90
2018-02-11T06:08:03.625Z,17.37
2018-02-11T06:09:09.761Z,18.80
2018-02-11T06:10:16.909Z,18.30
2018-02-11T06:11:23.120Z,19.25
2018-02-11T06:12:29.285Z,19.15
2018-02-11T06:13:35.516Z,16.65
2018-02-11T06:14:41.664Z,20.55
2018-02-11T06:15:47.847Z,19.40
2018-02-11T06:16:54.090Z,18.48
2018-02-11T06:18:00.832Z,18.08
2018-02-11T06:19:07.044Z,17.77
2018-02-11T06:20:13.232Z,20.00
2018-02-11T06:21:19.392Z,18.25
2018-02-11T06:22:25.570Z,19.20
2018-02-11T06:23:31.734Z,17.08
2018-02-11T06:24:37.916Z,18.00
2018-02-11T06:25:44.056Z,19.12
2018-02-11T06:26:50.284Z,20.33
2018-02-11T06:27:56.468Z,18.98
2018-02-11T06:29:06.668Z,17.85
2018-02-11T06:30:12.836Z,23.08
2018-02-11T06:31:19.953Z,19.55
2018-02-11T06:32:26.100Z,20.90
2018-02-11T06:33:32.320Z,18.98
2018-02-11T06:34:38.221Z,17.83
2018-02-11T06:35:44.385Z,19.08
2018-02-11T06:36:50.603Z,18.25
2018-02-11T06:38:02.028Z,22.83
2018-02-11T06:39:13.129Z,18.70
2018-02-11T06:40:19.253Z,18.15
2018-02-11T06:41:25.469Z,18.52
2018-02-11T06:42:32.636Z,17.15
2018-02-11T06:43:38.816Z,19.52
2018-02-11T06:44:44.981Z,18.00
2018-02-11T06:45:51.198Z,17.85
2018-02-11T06:46:57.473Z,16.35
2018-02-11T06:48:04.207Z,19.27
2018-02-11T06:49:10.532Z,18.00
2018-02-11T06:50:16.723Z,17.98
2018-02-11T06:51:23.777Z,24.12
2018-02-11T06:52:30.014Z,18.05
2018-02-11T06:53:37.038Z,18.67
2018-02-11T06:54:43.197Z,19.30
2018-02-11T06:55:50.239Z,19.48
2018-02-11T06:56:56.465Z,19.55
2018-02-11T06:58:03.374Z,19.30
2018-02-11T06:59:09.504Z,19.27
2018-02-11T07:00:15.669Z,18.00
2018-02-11T07:01:21.837Z,16.98
2018-02-11T07:02:28.038Z,18.30
2018-02-11T07:03:35.156Z,16.65
2018-02-11T07:04:41.313Z,19.90
2018-02-11T07:05:47.699Z,18.83
2018-02-11T07:06:54.777Z,19.90
2018-02-11T07:08:01.237Z,20.73
2018-02-11T07:09:08.445Z,18.92
2018-02-11T07:10:15.193Z,17.20
2018-02-11T07:11:22.009Z,16.92
2018-02-11T07:12:28.282Z,16.40
2018-02-11T07:13:34.420Z,20.62
2018-02-11T07:14:40.568Z,17.33
2018-02-11T07:15:46.762Z,16.48
2018-02-11T07:16:52.983Z,20.15
2018-02-11T07:17:59.994Z,17.00
2018-02-11T07:19:06.202Z,18.58
2018-02-11T07:20:12.335Z,15.80
2018-02-11T07:21:18.494Z,16.20
2018-02-11T07:22:24.641Z,19.35
2018-02-11T07:23:30.826Z,18.35
2018-02-11T07:24:37.048Z,16.40
2018-02-11T07:25:43.207Z,20.12
2018-02-11T07:26:49.366Z,18.75
2018-02-11T07:27:55.515Z,18.00
2018-02-11T07:29:01.862Z,18.10
2018-02-11T07:30:08.078Z,16.55
2018-02-11T07:31:14.226Z,16.17
2018-02-11T07:32:20.092Z,17.55
2018-02-11T07:33:26.377Z,19.17
2018-02-11T07:34:32.524Z,17.65
2018-02-11T07:35:38.771Z,16.90
2018-02-11T07:36:44.679Z,17.77
2018-02-11T07:37:50.917Z,15.63
2018-02-11T07:38:57.039Z,17.83
2018-02-11T07:40:03.250Z,15.63
2018-02-11T07:41:11.096Z,17.15
2018-02-11T07:42:18.216Z,18.52
2018-02-11T07:43:24.464Z,17.35
2018-02-11T07:44:30.675Z,16.02
2018-02-11T07:45:36.963Z,16.90
2018-02-11T07:46:43.756Z,17.40
2018-02-11T07:47:50.866Z,14.68
2018-02-11T07:48:57.629Z,13.85
2018-02-11T07:50:03.829Z,14.02
2018-02-11T07:51:10.019Z,13.48
2018-02-11T07:52:16.156Z,14.20
2018-02-11T07:53:23.233Z,16.10
2018-02-11T07:54:30.325Z,13.27
2018-02-11T07:55:36.884Z,15.75
2018-02-11T07:56:43.044Z,15.10
2018-02-11T07:57:49.204Z,15.82
2018-02-11T07:58:55.385Z,14.27
2018-02-11T08:00:01.805Z,13.32
2018-02-11T08:01:08.004Z,15.15
2018-02-11T08:02:14.175Z,14.73
2018-02-11T08:03:20.333Z,14.02
2018-02-11T08:04:26.568Z,13.50
2018-02-11T08:05:33.647Z,13.07
2018-02-11T08:06:40.497Z,11.52
2018-02-11T08:07:47.858Z,12.77
2018-02-11T08:08:54.680Z,19.02
2018-02-11T08:10:00.963Z,13.10
2018-02-11T08:11:07.125Z,11.18
2018-02-11T08:12:13.530Z,12.65
2018-02-11T08:13:20.575Z,12.55
2018-02-11T08:14:26.723Z,14.50
2018-02-11T08:15:33.008Z,12.82
2018-02-11T08:16:40.065Z,11.40
2018-02-11T08:17:46.250Z,12.52
2018-02-11T08:18:53.288Z,13.35
2018-02-11T08:19:59.427Z,12.00
2018-02-11T08:21:12.193Z,12.27
2018-02-11T08:22:19.329Z,11.82
2018-02-11T08:23:25.512Z,10.18
2018-02-11T08:24:31.672Z,11.60
2018-02-11T08:25:40.349Z,12.32
2018-02-11T08:26:46.485Z,9.50
2018-02-11T08:27:52.498Z,13.05
2018-02-11T08:28:58.871Z,11.60
2018-02-11T08:30:05.206Z,10.88
2018-02-11T08:31:11.370Z,12.10
2018-02-11T08:32:17.544Z,9.43
2018-02-11T08:33:23.699Z,10.32
2018-02-11T08:34:30.168Z,10.25
2018-02-11T08:35:36.703Z,9.45
2018-02-11T08:36:43.111Z,9.90
2018-02-11T08:37:49.646Z,10.75
2018-02-11T08:38:56.241Z,9.35
2018-02-11T08:40:02.718Z,10.43
2018-02-11T08:41:09.212Z,10.45
2018-02-11T08:42:16.430Z,9.95
2018-02-11T08:43:23.130Z,9.75
2018-02-11T08:44:30.313Z,10.38
2018-02-11T08:45:36.648Z,10.02
2018-02-11T08:46:43.834Z,10.07
2018-02-11T08:47:49.815Z,9.43
2018-02-11T08:48:55.996Z,11.80
2018-02-11T08:50:02.516Z,8.52
2018-02-11T08:51:08.664Z,9.63
2018-02-11T08:52:14.836Z,10.00
2018-02-11T08:53:20.977Z,9.10
2018-02-11T08:54:27.379Z,14.07
2018-02-11T08:55:34.476Z,8.88
2018-02-11T08:56:40.664Z,10.18
2018-02-11T08:57:46.896Z,11.07
2018-02-11T08:58:53.293Z,8.77
2018-02-11T08:59:59.500Z,8.60
2018-02-11T09:01:05.664Z,9.70
2018-02-11T09:02:11.832Z,8.38
2018-02-11T09:03:17.966Z,7.70
2018-02-11T09:04:24.137Z,8.15
2018-02-11T09:05:30.292Z,9.10
2018-02-11T09:06:36.706Z,7.25
2018-02-11T09:07:42.862Z,10.32
2018-02-11T09:08:56.716Z,9.02
2018-02-11T09:10:03.308Z,9.60
2018-02-11T09:11:09.789Z,8.93
2018-02-11T09:12:15.950Z,8.23
2018-02-11T09:13:22.124Z,8.55
2018-02-11T09:14:28.314Z,7.95
2018-02-11T09:15:34.623Z,8.90
2018-02-11T09:16:40.842Z,11.23
2018-02-11T09:17:48.081Z,9.07
2018-02-11T09:18:54.887Z,10.27
2018-02-11T09:20:01.195Z,8.90
2018-02-11T09:21:07.690Z,7.28
2018-02-11T09:22:13.853Z,9.75
2018-02-11T09:23:19.987Z,7.97
2018-02-11T09:24:26.171Z,7.90
2018-02-11T09:25:32.342Z,7.50
2018-02-11T09:26:38.513Z,12.55
2018-02-11T09:27:44.681Z,7.10
2018-02-11T09:28:50.812Z,7.90
2018-02-11T09:29:56.924Z,9.55
2018-02-11T09:31:03.045Z,9.68
2018-02-11T09:32:09.176Z,8.32
2018-02-11T09:33:15.361Z,8.63
2018-02-11T09:34:21.470Z,7.85
2018-02-11T09:35:27.658Z,9.95
2018-02-11T09:36:35.083Z,7.60
2018-02-11T09:37:41.227Z,8.23
2018-02-11T09:38:47.434Z,8.18
2018-02-11T09:39:53.596Z,7.25
2018-02-11T09:41:02.481Z,10.00
2018-02-11T09:42:08.765Z,9.02
2018-02-11T09:43:14.938Z,8.75
2018-02-11T09:44:21.140Z,8.10
2018-02-11T09:45:27.441Z,8.25
2018-02-11T09:46:33.738Z,8.85
2018-02-11T09:47:39.961Z,9.00
2018-02-11T09:48:47.136Z,8.10
2018-02-11T09:49:53.287Z,7.87
2018-02-11T09:50:59.477Z,9.27
2018-02-11T09:52:05.661Z,8.70
2018-02-11T09:53:11.896Z,9.98
2018-02-11T09:54:18.152Z,11.05
2018-02-11T09:55:24.599Z,8.48
2018-02-11T09:56:30.777Z,7.55
2018-02-11T09:57:36.917Z,8.60
2018-02-11T09:58:43.120Z,9.50
2018-02-11T09:59:49.294Z,9.15
2018-02-11T10:00:55.646Z,8.15
2018-02-11T10:02:02.440Z,8.30
2018-02-11T10:03:08.629Z,7.53
2018-02-11T10:04:14.809Z,8.20
2018-02-11T10:05:21.000Z,9.43
2018-02-11T10:06:27.220Z,8.10
2018-02-11T10:07:33.413Z,7.75
2018-02-11T10:08:40.161Z,11.20
2018-02-11T10:09:46.378Z,7.18
2018-02-11T10:10:52.550Z,9.18
2018-02-11T10:11:58.729Z,7.45
2018-02-11T10:13:04.980Z,7.28
2018-02-11T10:14:11.219Z,6.68
2018-02-11T10:15:17.440Z,6.97
2018-02-11T10:16:24.560Z,7.03
2018-02-11T10:17:30.768Z,6.03
2018-02-11T10:18:37.652Z,8.05
2018-02-11T10:19:44.168Z,6.55
2018-02-11T10:20:51.090Z,8.05
2018-02-11T10:21:57.283Z,5.50
2018-02-11T10:23:03.432Z,5.32
2018-02-11T10:24:09.596Z,7.85
2018-02-11T10:25:15.875Z,5.80
2018-02-11T10:26:22.308Z,6.97
2018-02-11T10:27:28.513Z,5.68
2018-02-11T10:28:34.662Z,6.07
2018-02-11T10:29:41.737Z,7.60
2018-02-11T10:30:48.018Z,5.82
2018-02-11T10:31:54.296Z,6.47
2018-02-11T10:33:00.697Z,6.20
2018-02-11T10:34:06.916Z,6.65
2018-02-11T10:35:13.087Z,6.60
2018-02-11T10:36:19.309Z,8.30
2018-02-11T10:37:25.335Z,7.55
2018-02-11T10:38:31.672Z,7.18
2018-02-11T10:39:40.774Z,7.43
2018-02-11T10:40:47.018Z,7.80
2018-02-11T10:41:53.274Z,7.15
2018-02-11T10:42:59.699Z,8.00
2018-02-11T10:44:05.897Z,7.55
2018-02-11T10:45:12.133Z,7.40
2018-02-11T10:46:19.292Z,8.48
2018-02-11T10:47:25.472Z,8.23
2018-02-11T10:48:31.918Z,6.45
2018-02-11T10:49:38.333Z,6.45
2018-02-11T10:50:44.479Z,6.60
2018-02-11T10:51:51.339Z,7.87
2018-02-11T10:52:59.275Z,6.35
2018-02-11T10:54:05.476Z,6.25
2018-02-11T10:55:11.680Z,6.62
2018-02-11T10:56:17.917Z,7.10
2018-02-11T10:57:24.131Z,8.68
2018-02-11T10:58:30.575Z,7.37
2018-02-11T10:59:36.818Z,8.15
2018-02-11T11:00:42.962Z,9.90
2018-02-11T11:01:49.497Z,7.53
2018-02-11T11:02:55.685Z,8.00
2018-02-11T11:04:02.119Z,9.73
2018-02-11T11:05:08.380Z,8.15
2018-02-11T11:06:14.636Z,8.70
2018-02-11T11:07:21.777Z,8.52
2018-02-11T11:08:27.979Z,8.98
2018-02-11T11:09:34.226Z,7.22
2018-02-11T11:10:40.504Z,8.25
2018-02-11T11:11:46.767Z,8.75
2018-02-11T11:12:52.810Z,9.18
2018-02-11T11:13:59.012Z,7.60
2018-02-11T11:15:04.898Z,7.22
2018-02-11T11:16:11.088Z,9.13
2018-02-11T11:17:17.321Z,9.55
2018-02-11T11:18:23.532Z,8.38
2018-02-11T11:19:29.595Z,7.47
2018-02-11T11:20:35.795Z,8.23
2018-02-11T11:21:41.976Z,7.05
2018-02-11T11:22:48.236Z,6.60
2018-02-11T11:23:54.479Z,8.80
2018-02-11T11:25:00.829Z,6.05
2018-02-11T11:26:07.015Z,6.35
2018-02-11T11:27:13.297Z,6.20
2018-02-11T11:28:19.472Z,5.72
2018-02-11T11:29:25.674Z,6.10
2018-02-11T11:30:32.465Z,6.10
2018-02-11T11:31:39.237Z,6.45
2018-02-11T11:32:45.988Z,5.57
2018-02-11T11:33:52.679Z,6.47
2018-02-11T11:35:00.432Z,6.95
2018-02-11T11:36:07.114Z,8.13
2018-02-11T11:37:13.645Z,5.35
2018-02-11T11:38:20.957Z,5.22
2018-02-11T11:39:28.739Z,5.32
2018-02-11T11:40:35.192Z,5.90
2018-02-11T11:41:41.733Z,7.12
2018-02-11T11:42:48.608Z,5.43
2018-02-11T11:43:55.284Z,7.40
2018-02-11T11:45:02.575Z,6.35
2018-02-11T11:46:09.444Z,6.25
2018-02-11T11:47:16.217Z,7.82
2018-02-11T11:48:22.890Z,5.87
2018-02-11T11:49:30.534Z,5.30
2018-02-11T11:50:38.318Z,5.30
2018-02-11T11:51:45.058Z,5.32
2018-02-11T11:52:51.635Z,5.10
2018-02-11T11:53:58.433Z,5.32
2018-02-11T11:55:04.977Z,7.80
2018-02-11T11:56:11.645Z,5.65
2018-02-11T11:57:18.893Z,7.87
2018-02-11T11:58:26.758Z,6.37
2018-02-11T11:59:33.739Z,5.97
2018-02-11T12:00:40.384Z,5.90
2018-02-11T12:01:47.396Z,5.95
2018-02-11T12:02:53.902Z,6.43
2018-02-11T12:04:00.675Z,5.97
2018-02-11T12:05:08.641Z,5.10
2018-02-11T12:06:15.472Z,5.47
2018-02-11T12:07:21.688Z,5.35
2018-02-11T12:08:28.449Z,5.37
2018-02-11T12:09:35.653Z,5.50
2018-02-11T12:10:42.512Z,5.95
2018-02-11T12:11:49.017Z,7.72
2018-02-11T12:12:56.468Z,5.60
2018-02-11T12:14:02.961Z,4.90
2018-02-11T12:15:14.242Z,5.47
2018-02-11T12:16:20.543Z,6.80
2018-02-11T12:17:27.309Z,7.15
2018-02-11T12:18:33.786Z,5.22
2018-02-11T12:19:40.299Z,6.40
2018-02-11T12:20:47.352Z,5.50
2018-02-11T12:21:53.849Z,5.90
2018-02-11T12:23:01.435Z,5.30
2018-02-11T12:24:08.252Z,5.85
2018-02-11T12:25:16.333Z,5.40
2018-02-11T12:26:22.754Z,6.57
2018-02-11T12:27:29.430Z,5.50
2018-02-11T12:28:36.223Z,6.05
2018-02-11T12:29:43.425Z,4.90
2018-02-11T12:30:49.712Z,5.97
2018-02-11T12:31:55.918Z,4.57
2018-02-11T12:33:02.308Z,5.18
2018-02-11T12:34:08.519Z,5.12
2018-02-11T12:35:14.709Z,4.60
2018-02-11T12:36:21.062Z,4.82
2018-02-11T12:37:28.197Z,4.72
2018-02-11T12:38:34.363Z,5.32
2018-02-11T12:39:40.572Z,5.18
2018-02-11T12:40:46.763Z,4.28
2018-02-11T12:41:52.946Z,7.22
2018-02-11T12:42:58.863Z,4.95
2018-02-11T12:44:05.113Z,5.32
2018-02-11T12:45:11.346Z,4.15
2018-02-11T12:46:17.556Z,4.32
2018-02-11T12:47:23.749Z,4.85
2018-02-11T12:48:30.066Z,5.15
2018-02-11T12:49:36.265Z,4.30
2018-02-11T12:50:42.461Z,4.53
2018-02-11T12:51:48.780Z,4.15
2018-02-11T12:52:54.986Z,4.43
2018-02-11T12:54:01.191Z,4.18
2018-02-11T12:55:07.350Z,4.15
2018-02-11T12:56:15.118Z,4.75
2018-02-11T12:57:21.438Z,4.43
2018-02-11T12:58:27.638Z,4.60
2018-02-11T12:59:33.919Z,4.45
2018-02-11T13:00:40.022Z,7.15
2018-02-11T13:01:46.170Z,3.75
2018-02-11T13:02:52.345Z,3.62
2018-02-11T13:03:58.855Z,4.22
2018-02-11T13:05:05.888Z,4.57
2018-02-11T13:06:12.115Z,5.82
2018-02-11T13:07:19.377Z,3.47
2018-02-11T13:08:29.109Z,4.60
2018-02-11T13:09:35.373Z,3.58
2018-02-11T13:10:41.641Z,5.55
2018-02-11T13:11:47.850Z,3.75
2018-02-11T13:12:57.004Z,3.28
2018-02-11T13:14:03.824Z,3.90
2018-02-11T13:15:09.980Z,4.07
2018-02-11T13:16:20.371Z,4.20
2018-02-11T13:17:26.545Z,5.85
2018-02-11T13:18:32.830Z,4.12
2018-02-11T13:19:39.067Z,3.55
2018-02-11T13:20:45.321Z,5.18
2018-02-11T13:21:51.565Z,3.33
2018-02-11T13:22:57.882Z,3.15
2018-02-11T13:24:04.111Z,3.40
2018-02-11T13:25:10.365Z,4.55
2018-02-11T13:26:17.372Z,3.58
2018-02-11T13:27:24.328Z,3.35
2018-02-11T13:28:30.581Z,4.70
2018-02-11T13:29:37.383Z,4.45
2018-02-11T13:30:43.588Z,3.50
2018-02-11T13:31:49.754Z,3.50
2018-02-11T13:32:55.941Z,3.92
2018-02-11T13:34:03.242Z,5.72
2018-02-11T13:35:10.040Z,3.78
2018-02-11T13:36:16.233Z,3.00
2018-02-11T13:37:22.401Z,5.75
2018-02-11T13:38:28.605Z,3.90
2018-02-11T13:39:34.849Z,3.92
2018-02-11T13:40:41.380Z,3.72
2018-02-11T13:41:47.629Z,3.28
2018-02-11T13:42:53.815Z,3.37
2018-02-11T13:44:00.155Z,3.83
2018-02-11T13:45:06.060Z,4.50
2018-02-11T13:46:12.237Z,3.67
2018-02-11T13:47:18.463Z,3.83
2018-02-11T13:48:24.681Z,4.45
2018-02-11T13:49:30.907Z,4.40
2018-02-11T13:50:37.073Z,4.53
2018-02-11T13:51:43.444Z,3.80
2018-02-11T13:52:49.737Z,3.58
2018-02-11T13:53:55.549Z,4.03
2018-02-11T13:55:01.940Z,3.42
2018-02-11T13:56:08.093Z,3.90
2018-02-11T13:57:14.247Z,3.87
2018-02-11T13:58:20.864Z,3.58
2018-02-11T13:59:27.057Z,4.07
2018-02-11T14:00:33.310Z,3.62
2018-02-11T14:01:39.493Z,5.00
2018-02-11T14:02:45.662Z,3.37
2018-02-11T14:03:51.877Z,4.87
2018-02-11T14:04:58.215Z,4.30
2018-02-11T14:06:04.413Z,4.30
2018-02-11T14:07:10.648Z,4.00
2018-02-11T14:08:16.838Z,5.37
2018-02-11T14:09:23.016Z,3.70
2018-02-11T14:10:29.234Z,3.85
2018-02-11T14:11:35.465Z,4.62
2018-02-11T14:12:41.673Z,4.97
2018-02-11T14:13:47.936Z,4.40
2018-02-11T14:14:53.812Z,5.03
2018-02-11T14:16:00.828Z,4.28
2018-02-11T14:17:07.064Z,3.78
2018-02-11T14:18:13.231Z,4.50
2018-02-11T14:19:19.420Z,4.62
2018-02-11T14:20:25.687Z,4.65
2018-02-11T14:21:31.881Z,4.40
2018-02-11T14:22:38.277Z,4.50
2018-02-11T14:23:48.148Z,4.22
2018-02-11T14:24:54.322Z,4.25
2018-02-11T14:26:00.552Z,3.50
2018-02-11T14:27:06.716Z,4.62